Terminal Aerodrome Forecast
Issued by NWS

Home | Current Version | Previous Version | Graphics & Text | Print | Product List | Glossary On
Versions: 1 2 3 4 5 6 7 8 9 10 11 12 13 14 15 16 17 18 19 20 21
031
FTUS43 KABR 300520
TAFATY
TAF
KATY 300520Z 3006/0106 31016KT 3SM -SN BKN008 OVC013
      TEMPO 3006/3010 1SM -SN BLSN
     FM301800 32018G26KT 5SM -SN OVC008
     FM010100 32012G20KT P6SM OVC008=

USA.gov is the U.S. government's official web portal to all federal, state and local government web resources and services.